LFRB/BES METAR and TAF weather

Enter ICAO airport designator
Station Type Date Time Source
LFRB METAR 2021/03/06 05:00 UTC NOAA

LFRB 060500Z AUTO 05007KT 9999 OVC038 03/M02 Q1030 NOSIG


Station Type Date Time Source
LFRB Decoded METAR 2021/03/06 05:00 UTC NOAA

Brest, France (LFRB) 48-27N 004-25W 103M
Mar 06, 2021 - 12:00 AM EST / 2021.03.06 0500 UTC
Wind: from the NE (050 degrees) at 8 MPH (7 KT):0
Visibility: greater than 7 mile(s):0
Sky conditions: overcast
Temperature: 37 F (3 C)
Dew Point: 28 F (-2 C)
Relative Humidity: 69%
Pressure (altimeter): 30.42 in. Hg (1030 hPa)
ob: LFRB 060500Z AUTO 05007KT 9999 OVC038 03/M02 Q1030 NOSIG
cycle: 5

Station Type Date Time Source
LFRB TAF 2021/03/06 06:21 UTC NOAA

TAF LFRB 060500Z 0606/0712 06007KT 9999 BKN035
BECMG 0607/0609 07010KT SCT035
BECMG 0622/0624 06005KT PROB30
TEMPO 0702/0707 3000 BR
BECMG 0708/0710 06010KT

Example: see airport list